Terminal Aerodrome Forecast
Issued by NWS

Home | Current Version | Previous Version | Text Only | Print | Product List | Glossary On
Versions: 1 2 3 4 5 6 7 8 9 10 11 12 13 14 15 16 17 18 19 20
000
FTUS45 KRIW 302136 AAA
TAFRKS
TAF AMD
KRKS 302136Z 3022/3118 29014KT P6SM SCT040 BKN090
     FM310000 07011KT P6SM -RA SCT020 OVC028
     FM311100 07014G24KT P6SM VCSH BKN040
     FM311500 06025G34KT P6SM VCSH BKN040=

USA.gov is the U.S. government's official web portal to all federal, state and local government web resources and services.